Time;durP1;ratioP1;P1;durP2;ratioP2;P2;SDS_P1;SDS_P2;PMS_P1;PMS_P2;Temp;Humidity;BMP_temperature;BMP_pressure;BME280_temperature;BME280_humidity;BME280_pressure;Samples;Min_cycle;Max_cycle;Signal;HPM_P1;HPM_P2
2023/05/27 04:00:51;;;;;;;0.60;0.10;;;12.20;1.00;;;;;;5878055;23;22062;-70
2023/05/27 04:03:19;;;;;;;0.60;0.10;;;;;;;;;;4955813;28;20448;-69
2023/05/27 04:05:47;;;;;;;0.60;0.20;;;12.00;1.00;;;;;;4956398;29;20444;-69
2023/05/27 04:08:15;;;;;;;0.60;0.10;;;12.00;1.00;;;;;;4956211;29;20459;-69
2023/05/27 04:10:44;;;;;;;0.80;0.20;;;;;;;;;;4954720;28;20444;-69
2023/05/27 04:13:11;;;;;;;6.67;2.37;;;12.00;1.00;;;;;;4955831;29;20474;-70
2023/05/27 04:15:39;;;;;;;0.60;0.10;;;11.90;1.00;;;;;;4983938;23;20500;-72
2023/05/27 04:18:08;;;;;;;1.00;0.57;;;11.90;6.00;;;;;;4977689;28;20434;-70
2023/05/27 04:20:39;;;;;;;0.60;0.10;;;11.80;1.00;;;;;;4975960;28;20942;-72
2023/05/27 04:23:07;;;;;;;0.60;0.10;;;11.80;1.00;;;;;;4974279;28;20440;-71
2023/05/27 04:25:35;;;;;;;0.60;0.10;;;11.90;1.00;;;;;;4975023;28;20536;-70
2023/05/27 04:28:04;;;;;;;0.60;0.33;;;11.90;1.00;;;;;;4974493;28;20497;-71
2023/05/27 04:30:32;;;;;;;1.00;0.30;;;11.80;1.00;;;;;;4969400;28;20903;-71
2023/05/27 04:33:00;;;;;;;0.60;0.20;;;11.80;8.90;;;;;;4965454;28;20494;-70
2023/05/27 04:35:31;;;;;;;1.90;0.80;;;11.90;2.30;;;;;;4966050;28;20570;-70
2023/05/27 04:38:00;;;;;;;0.60;0.10;;;11.90;2.20;;;;;;4973515;28;20523;-70
2023/05/27 04:40:29;;;;;;;0.60;0.10;;;11.90;1.90;;;;;;4967244;28;20448;-70
2023/05/27 04:42:57;;;;;;;0.60;0.20;;;11.90;2.90;;;;;;4972333;28;20468;-71
2023/05/27 04:45:26;;;;;;;0.70;0.60;;;11.90;2.60;;;;;;4974590;28;20555;-71
2023/05/27 04:47:55;;;;;;;1.20;1.00;;;12.00;3.10;;;;;;4974280;28;21028;-71
2023/05/27 04:50:24;;;;;;;0.60;0.10;;;12.00;3.90;;;;;;4973782;28;20490;-71
2023/05/27 04:52:53;;;;;;;0.60;0.10;;;12.00;3.70;;;;;;4966833;28;20482;-72
2023/05/27 04:55:22;;;;;;;0.60;0.20;;;12.00;4.20;;;;;;4967142;28;20468;-71
2023/05/27 04:57:50;;;;;;;0.60;0.10;;;12.00;4.40;;;;;;4964246;28;20483;-71
2023/05/27 05:00:24;;;;;;;0.60;0.10;;;12.00;4.70;;;;;;4972843;28;20501;-71
2023/05/27 05:03:00;;;;;;;0.60;0.10;;;12.10;5.40;;;;;;4973593;28;20458;-71
2023/05/27 05:05:29;;;;;;;0.60;0.20;;;12.10;4.40;;;;;;4973115;28;20475;-71
2023/05/27 05:07:58;;;;;;;1.33;0.83;;;12.00;4.90;;;;;;4974559;28;21092;-70
2023/05/27 05:10:26;;;;;;;0.60;0.20;;;12.00;6.00;;;;;;4974841;28;21089;-72
2023/05/27 05:12:54;;;;;;;0.60;0.10;;;12.10;5.40;;;;;;4975459;28;20438;-71
2023/05/27 05:15:22;;;;;;;0.80;0.20;;;12.10;5.60;;;;;;4971754;28;20464;-71
2023/05/27 05:17:50;;;;;;;0.60;0.17;;;12.20;5.80;;;;;;4974760;28;20494;-71
2023/05/27 05:20:18;;;;;;;0.80;0.50;;;12.20;14.70;;;;;;4972596;28;20475;-71
2023/05/27 05:22:46;;;;;;;0.60;0.10;;;12.20;5.10;;;;;;4974092;28;20790;-71
2023/05/27 05:25:16;;;;;;;0.60;0.20;;;12.20;6.40;;;;;;4974905;28;20937;-70
2023/05/27 05:27:43;;;;;;;0.60;0.10;;;12.30;6.60;;;;;;4968933;28;20484;-70
2023/05/27 05:30:12;;;;;;;0.80;0.30;;;12.30;6.20;;;;;;4963953;28;21319;-70
2023/05/27 05:32:40;;;;;;;0.60;0.20;;;12.30;14.40;;;;;;4968147;28;20769;-71
2023/05/27 05:35:08;;;;;;;0.60;0.10;;;12.30;6.10;;;;;;4971738;28;20467;-71
2023/05/27 05:37:36;;;;;;;0.60;0.10;;;12.30;14.10;;;;;;4973829;28;20848;-72
2023/05/27 05:40:05;;;;;;;0.60;0.10;;;12.20;7.30;;;;;;4976140;28;20466;-70
2023/05/27 05:42:34;;;;;;;0.70;0.20;;;12.40;7.90;;;;;;4985479;28;20452;-70
2023/05/27 05:45:05;;;;;;;2.80;0.30;;;12.50;8.00;;;;;;4993793;28;20535;-72
2023/05/27 05:47:33;;;;;;;0.60;0.10;;;12.50;8.00;;;;;;4981032;28;20454;-71
2023/05/27 05:50:01;;;;;;;0.77;0.77;;;;;;;;;;4974061;28;20442;-71
2023/05/27 05:52:29;;;;;;;0.60;0.10;;;12.60;7.90;;;;;;4975078;28;20512;-70
2023/05/27 05:54:57;;;;;;;0.60;0.10;;;12.60;13.80;;;;;;4978533;28;20450;-71
2023/05/27 05:57:26;;;;;;;0.60;0.10;;;;;;;;;;4979180;28;20482;-70
2023/05/27 05:59:55;;;;;;;0.60;0.20;;;12.80;7.30;;;;;;4979008;28;20444;-72
2023/05/27 06:02:23;;;;;;;0.60;0.10;;;12.80;14.70;;;;;;4975711;28;20537;-71
2023/05/27 06:04:50;;;;;;;0.60;0.13;;;12.90;6.00;;;;;;4975560;28;20933;-71
2023/05/27 06:07:18;;;;;;;0.60;0.10;;;13.00;6.30;;;;;;4979013;28;20457;-71
2023/05/27 06:09:46;;;;;;;0.60;0.10;;;13.10;6.10;;;;;;4988401;28;20827;-72
2023/05/27 06:12:14;;;;;;;1.33;0.97;;;13.20;4.20;;;;;;4997380;28;20583;-70
2023/05/27 06:14:42;;;;;;;1.03;0.93;;;13.10;1.00;;;;;;4982313;28;20540;-71
2023/05/27 06:17:11;;;;;;;0.60;0.17;;;13.20;2.60;;;;;;4973645;28;21069;-72
2023/05/27 06:19:39;;;;;;;0.60;0.10;;;13.30;1.90;;;;;;4973745;28;20518;-72
2023/05/27 06:22:08;;;;;;;1.10;0.30;;;13.40;1.90;;;;;;4973516;28;20484;-71
2023/05/27 06:24:36;;;;;;;0.60;0.23;;;13.40;1.60;;;;;;4974550;28;20542;-71
2023/05/27 06:27:04;;;;;;;1.20;0.90;;;13.40;1.00;;;;;;4973823;28;20468;-71
2023/05/27 06:29:32;;;;;;;0.60;0.20;;;13.60;1.00;;;;;;4973916;28;20498;-71
2023/05/27 06:32:00;;;;;;;0.93;0.83;;;13.70;1.00;;;;;;4973924;28;20483;-70
2023/05/27 06:34:29;;;;;;;0.60;0.10;;;13.70;1.00;;;;;;4979401;28;20456;-71
2023/05/27 06:36:57;;;;;;;11.93;1.47;;;13.70;1.00;;;;;;4980459;28;20496;-72
2023/05/27 06:39:25;;;;;;;0.60;0.10;;;13.80;1.00;;;;;;4980763;28;20468;-71
2023/05/27 06:41:53;;;;;;;0.60;0.20;;;13.80;1.00;;;;;;4980481;28;20541;-72
2023/05/27 06:44:21;;;;;;;0.60;0.10;;;13.90;1.00;;;;;;4979981;28;20444;-72
2023/05/27 06:46:49;;;;;;;0.70;0.30;;;14.00;1.00;;;;;;4982889;28;20488;-71
2023/05/27 06:49:20;;;;;;;0.60;0.10;;;16.80;5.90;;;;;;4983260;28;20530;-72
2023/05/27 06:51:49;;;;;;;0.60;0.10;;;14.20;1.00;;;;;;4985020;28;20554;-71
2023/05/27 06:54:17;;;;;;;0.60;0.20;;;14.20;1.00;;;;;;4983091;28;20446;-72
2023/05/27 06:56:45;;;;;;;0.60;0.30;;;14.20;1.00;;;;;;4982697;28;20492;-72
2023/05/27 06:59:13;;;;;;;0.60;0.10;;;14.20;1.00;;;;;;4982900;28;20507;-70
2023/05/27 07:01:41;;;;;;;1.17;0.40;;;14.30;1.00;;;;;;4982256;28;20449;-71
2023/05/27 07:04:09;;;;;;;0.70;0.30;;;14.30;1.00;;;;;;4981276;28;20481;-71
2023/05/27 07:06:37;;;;;;;0.60;0.10;;;14.30;1.00;;;;;;4980308;28;20573;-71
2023/05/27 07:09:06;;;;;;;0.60;0.20;;;14.40;1.00;;;;;;4980891;28;20450;-70
2023/05/27 07:11:34;;;;;;;1.07;0.40;;;14.50;1.00;;;;;;4992785;28;20453;-71
2023/05/27 07:14:02;;;;;;;0.60;0.17;;;14.50;3.80;;;;;;4998884;28;20492;-70
2023/05/27 07:16:30;;;;;;;0.60;0.10;;;14.70;1.00;;;;;;4999143;28;20477;-72
2023/05/27 07:19:00;;;;;;;0.60;0.10;;;14.80;1.00;;;;;;4998887;28;21013;-71
2023/05/27 07:21:28;;;;;;;0.60;0.10;;;14.90;1.00;;;;;;4999097;28;20460;-71
2023/05/27 07:23:58;;;;;;;0.60;0.10;;;14.90;1.00;;;;;;4980058;28;20446;-70
2023/05/27 07:26:27;;;;;;;0.60;0.20;;;15.00;1.00;;;;;;4979579;28;20475;-71
2023/05/27 07:28:55;;;;;;;0.60;0.10;;;15.00;1.10;;;;;;4979829;28;20474;-71
2023/05/27 07:31:23;;;;;;;0.80;0.70;;;15.00;1.00;;;;;;4982344;28;20455;-71
2023/05/27 07:33:51;;;;;;;1.03;0.93;;;15.10;1.00;;;;;;4979255;28;20789;-70
2023/05/27 07:36:19;;;;;;;0.60;0.20;;;15.10;1.00;;;;;;4961062;28;20474;-70
2023/05/27 07:38:47;;;;;;;2.50;0.73;;;15.10;1.00;;;;;;4960634;28;20489;-70
2023/05/27 07:41:15;;;;;;;0.60;0.27;;;15.20;1.00;;;;;;4960562;28;21158;-70
2023/05/27 07:43:45;;;;;;;1.13;0.40;;;15.10;1.00;;;;;;4960361;28;20456;-71
2023/05/27 07:46:12;;;;;;;0.90;0.57;;;15.20;1.00;;;;;;4961033;28;20570;-70
2023/05/27 07:48:40;;;;;;;0.60;0.20;;;15.20;1.00;;;;;;4977999;28;20486;-71
2023/05/27 07:51:08;;;;;;;0.70;0.60;;;15.30;1.00;;;;;;4980188;28;20492;-71
2023/05/27 07:53:37;;;;;;;2.53;1.20;;;15.30;2.70;;;;;;4978237;28;20442;-71
2023/05/27 07:56:05;;;;;;;0.60;0.10;;;15.60;1.00;;;;;;4979889;28;20503;-71
2023/05/27 07:58:33;;;;;;;0.60;0.20;;;15.60;1.00;;;;;;4979342;28;21098;-72
2023/05/27 08:01:03;;;;;;;1.07;0.97;;;15.90;1.00;;;;;;4983761;28;20466;-71
2023/05/27 08:03:31;;;;;;;4.10;1.70;;;15.90;1.00;;;;;;4989397;28;20453;-72
2023/05/27 08:05:59;;;;;;;2.20;1.03;;;15.90;1.00;;;;;;4985211;28;20471;-71
2023/05/27 08:08:27;;;;;;;0.70;0.30;;;15.90;1.00;;;;;;4977648;28;20940;-71
2023/05/27 08:10:55;;;;;;;0.60;0.10;;;16.00;1.00;;;;;;4979028;28;20448;-71
2023/05/27 08:13:23;;;;;;;0.60;0.10;;;16.10;1.00;;;;;;4976055;28;20886;-71
2023/05/27 08:15:52;;;;;;;0.80;0.67;;;16.10;1.00;;;;;;4985722;28;20487;-72
2023/05/27 08:18:21;;;;;;;0.60;0.30;;;16.20;1.00;;;;;;4979152;28;20482;-71
2023/05/27 08:20:50;;;;;;;1.13;1.03;;;16.20;1.00;;;;;;4984494;28;20459;-70
2023/05/27 08:23:19;;;;;;;1.63;1.00;;;16.40;1.00;;;;;;4975366;28;20468;-71
2023/05/27 08:25:47;;;;;;;0.60;0.20;;;16.40;1.00;;;;;;4983589;28;20479;-71
2023/05/27 08:28:16;;;;;;;0.60;0.20;;;16.50;1.00;;;;;;4975246;28;20541;-71
2023/05/27 08:30:44;;;;;;;0.60;0.10;;;16.50;1.00;;;;;;4983561;28;20443;-72
2023/05/27 08:33:12;;;;;;;0.60;0.20;;;16.70;1.00;;;;;;4975587;28;20454;-70
2023/05/27 08:35:42;;;;;;;3.00;1.73;;;16.70;1.00;;;;;;4980286;28;20559;-71
2023/05/27 08:38:09;;;;;;;0.60;0.10;;;16.70;1.00;;;;;;4976475;28;20473;-72
2023/05/27 08:40:38;;;;;;;0.60;0.10;;;16.80;1.00;;;;;;4983478;28;20472;-72
2023/05/27 08:43:07;;;;;;;0.60;0.20;;;16.90;1.00;;;;;;4983776;28;20549;-72
2023/05/27 08:45:35;;;;;;;0.60;0.10;;;16.90;1.00;;;;;;4992695;28;20488;-72
2023/05/27 08:48:04;;;;;;;4.07;1.53;;;16.90;1.00;;;;;;4985123;28;20901;-72
2023/05/27 08:50:32;;;;;;;0.60;0.10;;;17.00;1.00;;;;;;4984210;28;20452;-70
2023/05/27 08:53:03;;;;;;;5.30;0.97;;;17.00;1.00;;;;;;4974678;28;20840;-75
2023/05/27 08:55:33;;;;;;;0.60;0.10;;;17.10;1.00;;;;;;4975474;28;21057;-72
2023/05/27 08:58:02;;;;;;;0.60;0.17;;;17.10;1.00;;;;;;4977836;28;20530;-69
2023/05/27 09:00:30;;;;;;;0.60;0.10;;;17.40;1.00;;;;;;4980700;28;20508;-71
2023/05/27 09:02:59;;;;;;;2.60;1.60;;;17.40;1.00;;;;;;4980808;28;20455;-70
2023/05/27 09:05:27;;;;;;;0.60;0.10;;;17.50;1.00;;;;;;4980471;28;20559;-71
2023/05/27 09:07:56;;;;;;;1.27;0.63;;;17.60;1.00;;;;;;4985645;28;20481;-72
2023/05/27 09:10:36;;;;;;;0.60;0.10;;;17.70;1.00;;;;;;4975108;28;20446;-70
2023/05/27 09:13:04;;;;;;;2.43;2.33;;;17.80;1.00;;;;;;4975819;28;20463;-70
2023/05/27 09:15:33;;;;;;;0.60;0.20;;;17.90;1.00;;;;;;4974523;28;20501;-72
2023/05/27 09:18:02;;;;;;;0.97;0.23;;;18.00;1.00;;;;;;4975095;28;20520;-70
2023/05/27 09:20:31;;;;;;;1.13;0.20;;;18.10;1.00;;;;;;4975756;28;20434;-70
2023/05/27 09:23:00;;;;;;;0.60;0.10;;;18.10;1.00;;;;;;4970652;28;20532;-72
2023/05/27 09:25:29;;;;;;;0.60;0.10;;;18.10;1.00;;;;;;4973279;28;20517;-72
2023/05/27 09:27:57;;;;;;;0.60;0.17;;;18.20;1.00;;;;;;4974779;28;20472;-72
2023/05/27 09:30:26;;;;;;;0.60;0.10;;;18.10;1.00;;;;;;4975456;28;20440;-73
2023/05/27 09:33:01;;;;;;;0.60;0.10;;;18.40;1.00;;;;;;4975748;28;20923;-70
2023/05/27 09:35:29;;;;;;;1.00;0.43;;;18.50;1.00;;;;;;4975077;28;21068;-73
2023/05/27 09:38:06;;;;;;;0.90;0.20;;;18.60;1.00;;;;;;4975600;28;20527;-71
2023/05/27 09:40:36;;;;;;;0.60;0.20;;;18.60;1.00;;;;;;4975400;28;20496;-71
2023/05/27 09:43:04;;;;;;;0.60;0.10;;;18.70;1.00;;;;;;4974715;28;20488;-72
2023/05/27 09:45:34;;;;;;;0.60;0.10;;;18.80;1.00;;;;;;4974306;28;20560;-72
2023/05/27 09:48:03;;;;;;;0.60;0.20;;;18.80;1.00;;;;;;4972299;28;20487;-72
2023/05/27 09:50:32;;;;;;;0.70;0.40;;;18.80;1.00;;;;;;4974974;28;20441;-72
2023/05/27 09:53:02;;;;;;;0.60;0.10;;;18.80;1.00;;;;;;4974506;28;20519;-72
2023/05/27 09:55:41;;;;;;;0.60;0.20;;;19.00;1.00;;;;;;4966075;28;20474;-72
2023/05/27 09:58:09;;;;;;;0.60;0.10;;;17.10;1.00;;;;;;4973480;28;20491;-72
2023/05/27 10:00:40;;;;;;;0.60;0.10;;;19.10;1.00;;;;;;4971644;28;20484;-71
2023/05/27 10:03:11;;;;;;;0.60;0.20;;;19.20;1.00;;;;;;4973349;28;21028;-72
2023/05/27 10:05:41;;;;;;;0.60;0.10;;;;;;;;;;4973904;28;20469;-72
2023/05/27 10:08:09;;;;;;;0.60;0.10;;;19.40;1.00;;;;;;4973763;28;21021;-74
2023/05/27 10:10:54;;;;;;;0.70;0.40;;;19.40;1.00;;;;;;4970224;28;20553;-72
2023/05/27 10:13:24;;;;;;;0.60;0.10;;;19.50;1.00;;;;;;4969899;28;20465;-71
2023/05/27 10:15:53;;;;;;;0.70;0.30;;;19.50;1.00;;;;;;4972383;28;20473;-73
2023/05/27 10:18:25;;;;;;;0.60;0.20;;;19.60;1.00;;;;;;4980983;23;20490;-70
2023/05/27 10:20:53;;;;;;;0.70;0.37;;;19.70;1.00;;;;;;4949558;29;20450;-71
2023/05/27 10:23:26;;;;;;;2.23;0.50;;;19.60;1.00;;;;;;4945561;29;20773;-72
2023/05/27 10:25:57;;;;;;;0.60;0.20;;;19.50;1.00;;;;;;4941747;29;20920;-72
2023/05/27 10:28:26;;;;;;;0.60;0.20;;;19.70;1.00;;;;;;4934800;29;20559;-71
2023/05/27 10:31:03;;;;;;;0.60;0.10;;;19.80;1.00;;;;;;4934750;29;20534;-71
2023/05/27 10:33:32;;;;;;;0.60;0.10;;;;;;;;;;4941355;29;20451;-74
2023/05/27 10:36:07;;;;;;;0.70;0.40;;;20.20;1.00;;;;;;4954326;28;20460;-75
2023/05/27 10:38:36;;;;;;;0.60;0.10;;;;;;;;;;4954058;28;20557;-76
2023/05/27 10:41:07;;;;;;;0.60;0.20;;;20.30;1.00;;;;;;4939347;29;20898;-73
2023/05/27 10:43:36;;;;;;;0.60;0.20;;;20.40;1.00;;;;;;4951424;28;21145;-72
2023/05/27 10:46:09;;;;;;;0.60;0.10;;;20.50;1.00;;;;;;4953776;29;21049;-72
2023/05/27 10:48:39;;;;;;;0.80;0.40;;;20.40;1.00;;;;;;4954029;28;20525;-72
2023/05/27 10:51:08;;;;;;;0.60;0.10;;;20.40;1.00;;;;;;4961198;28;20450;-73
2023/05/27 10:53:37;;;;;;;0.60;0.20;;;20.50;1.00;;;;;;4949567;28;20441;-73
2023/05/27 10:56:08;;;;;;;1.33;1.23;;;20.50;1.00;;;;;;4949061;28;20461;-74
2023/05/27 10:58:38;;;;;;;3.37;0.50;;;20.50;1.00;;;;;;4957978;28;20565;-75
2023/05/27 11:01:10;;;;;;;1.20;0.63;;;20.50;1.00;;;;;;4955233;28;20461;-73
2023/05/27 11:03:44;;;;;;;0.60;0.10;;;20.60;1.00;;;;;;4953559;28;20957;-74
2023/05/27 11:06:14;;;;;;;0.60;0.23;;;20.60;1.00;;;;;;4959457;28;20533;-73
2023/05/27 11:08:43;;;;;;;0.60;0.20;;;20.60;1.00;;;;;;4958609;28;20841;-74
2023/05/27 11:11:13;;;;;;;0.60;0.10;;;20.80;1.00;;;;;;4960418;28;20446;-74
2023/05/27 11:13:44;;;;;;;0.70;0.23;;;20.90;1.00;;;;;;4959738;28;20592;-75
2023/05/27 11:16:16;;;;;;;2.73;2.63;;;21.00;1.00;;;;;;4951909;29;20443;-74
2023/05/27 11:18:45;;;;;;;0.60;0.10;;;20.90;1.00;;;;;;4951026;28;20476;-71
2023/05/27 11:21:15;;;;;;;0.60;0.10;;;21.00;1.00;;;;;;4964161;28;20958;-71
2023/05/27 11:23:46;;;;;;;0.60;0.20;;;21.20;1.00;;;;;;4972917;28;20438;-73
2023/05/27 11:26:21;;;;;;;0.60;0.10;;;21.30;1.00;;;;;;4959792;28;20454;-70
2023/05/27 11:28:50;;;;;;;1.33;1.23;;;21.40;1.00;;;;;;4956572;28;20502;-71
2023/05/27 11:31:20;;;;;;;0.67;0.23;;;21.40;1.00;;;;;;4960015;28;20466;-72
2023/05/27 11:33:51;;;;;;;0.60;0.20;;;21.30;1.00;;;;;;4956852;29;20439;-72
2023/05/27 11:36:21;;;;;;;0.60;0.20;;;21.30;1.00;;;;;;4959425;28;20442;-73
2023/05/27 11:38:53;;;;;;;0.60;0.20;;;21.30;1.00;;;;;;4960409;28;20486;-72
2023/05/27 11:41:25;;;;;;;3.50;1.53;;;21.40;1.00;;;;;;4956196;28;20490;-72
2023/05/27 11:43:56;;;;;;;0.80;0.23;;;21.30;1.00;;;;;;4958828;28;20442;-71
2023/05/27 11:46:24;;;;;;;0.70;0.40;;;;;;;;;;4956940;28;20578;-73
2023/05/27 11:48:52;;;;;;;3.67;3.47;;;21.30;1.00;;;;;;4955244;28;20562;-72
2023/05/27 11:51:28;;;;;;;0.60;0.10;;;21.30;1.00;;;;;;4951320;28;20555;-76
2023/05/27 11:53:58;;;;;;;0.90;0.37;;;21.40;1.00;;;;;;4948187;29;20486;-72
2023/05/27 11:56:28;;;;;;;0.60;0.10;;;21.60;1.00;;;;;;4955263;28;20509;-72
2023/05/27 11:58:59;;;;;;;0.60;0.20;;;;;;;;;;4957069;28;20567;-73
2023/05/27 12:01:28;;;;;;;0.60;0.20;;;;;;;;;;4951886;29;20484;-71
2023/05/27 12:03:56;;;;;;;0.80;0.40;;;;;;;;;;4955820;28;20534;-72
2023/05/27 12:06:25;;;;;;;1.03;0.93;;;;;;;;;;4954342;28;20451;-72
2023/05/27 12:08:53;;;;;;;0.60;0.10;;;;;;;;;;4955608;28;20527;-73
2023/05/27 12:11:21;;;;;;;0.60;0.10;;;;;;;;;;4967478;28;20828;-71
2023/05/27 12:13:52;;;;;;;0.70;0.70;;;21.90;1.00;;;;;;4976655;28;20929;-72
2023/05/27 12:16:20;;;;;;;0.70;0.30;;;;;;;;;;4975881;28;20448;-71
2023/05/27 12:18:48;;;;;;;0.80;0.40;;;;;;;;;;4975141;28;20562;-72
2023/05/27 12:21:17;;;;;;;0.60;0.20;;;21.80;1.00;;;;;;4965154;28;20479;-70
2023/05/27 12:23:45;;;;;;;0.60;0.13;;;21.90;1.00;;;;;;4973623;28;20546;-72
2023/05/27 12:26:14;;;;;;;0.70;0.30;;;22.10;1.00;;;;;;4975359;28;20538;-71
2023/05/27 12:28:42;;;;;;;0.60;0.20;;;22.30;1.00;;;;;;4975343;28;20581;-72
2023/05/27 12:31:12;;;;;;;0.80;0.40;;;22.30;1.00;;;;;;4960667;28;20964;-73
2023/05/27 12:33:40;;;;;;;0.60;0.10;;;22.30;1.00;;;;;;4955749;28;20536;-72
2023/05/27 12:36:08;;;;;;;0.60;0.20;;;22.40;1.00;;;;;;4955915;28;20449;-72
2023/05/27 12:38:36;;;;;;;5.03;0.57;;;22.40;1.00;;;;;;4955910;28;21011;-72
2023/05/27 12:41:04;;;;;;;2.07;1.90;;;;;;;;;;4956687;28;20533;-71
2023/05/27 12:43:32;;;;;;;0.80;0.20;;;;;;;;;;4955444;29;20455;-70
2023/05/27 12:46:00;;;;;;;0.60;0.20;;;22.40;1.00;;;;;;4956233;29;20592;-71
2023/05/27 12:48:29;;;;;;;0.60;0.20;;;22.40;1.00;;;;;;4956273;28;20558;-72
2023/05/27 12:50:58;;;;;;;0.60;0.20;;;;;;;;;;4957459;28;20555;-71
2023/05/27 12:53:26;;;;;;;0.70;0.20;;;;;;;;;;4969724;28;20944;-71
2023/05/27 12:55:55;;;;;;;0.60;0.10;;;;;;;;;;4973830;28;20451;-72
2023/05/27 12:58:23;;;;;;;0.70;0.30;;;;;;;;;;4974807;28;20467;-72
2023/05/27 13:00:51;;;;;;;0.60;0.20;;;22.70;1.00;;;;;;4963915;28;20476;-72
2023/05/27 13:03:19;;;;;;;5.90;4.13;;;22.60;1.00;;;;;;4955175;28;20458;-72
2023/05/27 13:05:48;;;;;;;0.63;0.10;;;22.60;1.00;;;;;;4954992;28;20484;-72
2023/05/27 13:08:16;;;;;;;0.70;0.20;;;22.70;1.00;;;;;;4954974;28;20480;-71
2023/05/27 13:10:45;;;;;;;0.60;0.10;;;22.80;1.00;;;;;;4961820;28;20440;-72
2023/05/27 13:13:13;;;;;;;0.60;0.10;;;23.00;1.00;;;;;;4959403;28;20568;-72
2023/05/27 13:15:41;;;;;;;0.60;0.20;;;23.10;1.00;;;;;;4955239;28;20447;-71
2023/05/27 13:18:10;;;;;;;0.70;0.20;;;23.10;1.00;;;;;;4954769;28;20518;-72
2023/05/27 13:20:38;;;;;;;0.70;0.20;;;;;;;;;;4954684;28;21011;-72
2023/05/27 13:23:08;;;;;;;0.60;0.20;;;23.20;1.00;;;;;;4954737;29;20452;-72
2023/05/27 13:25:35;;;;;;;0.70;0.17;;;23.20;1.00;;;;;;4955048;28;20452;-72
2023/05/27 13:28:03;;;;;;;0.80;0.30;;;23.20;1.00;;;;;;4954829;28;20476;-71
2023/05/27 13:30:31;;;;;;;0.70;0.20;;;;;;;;;;4954998;29;20462;-72
2023/05/27 13:32:59;;;;;;;0.63;0.10;;;24.20;1.00;;;;;;4954277;28;20460;-71
2023/05/27 13:35:27;;;;;;;0.70;0.20;;;;;;;;;;4955016;28;20532;-72
2023/05/27 13:37:55;;;;;;;0.80;0.50;;;23.30;1.00;;;;;;4955244;28;20558;-71
2023/05/27 13:40:24;;;;;;;0.67;0.10;;;23.40;1.00;;;;;;4954318;28;20487;-72
2023/05/27 13:42:53;;;;;;;0.90;0.37;;;;;;;;;;4953991;28;20871;-72
2023/05/27 13:45:24;;;;;;;3.40;1.03;;;;;;;;;;4954490;28;20444;-72
2023/05/27 13:47:52;;;;;;;1.20;0.67;;;23.20;1.00;;;;;;4954362;28;20514;-72
2023/05/27 13:50:20;;;;;;;0.70;0.20;;;23.40;1.00;;;;;;4954812;29;20512;-72
2023/05/27 13:52:47;;;;;;;0.67;0.17;;;23.60;1.00;;;;;;4954316;28;20452;-72
2023/05/27 13:55:15;;;;;;;0.70;0.10;;;23.60;1.00;;;;;;4954727;29;20449;-72
2023/05/27 13:57:44;;;;;;;0.70;0.10;;;23.60;1.00;;;;;;4954171;28;20468;-72
2023/05/27 14:00:15;;;;;;;3.43;2.40;;;23.40;1.00;;;;;;4954119;28;20544;-72
2023/05/27 14:02:43;;;;;;;0.70;0.20;;;;;;;;;;4954234;28;20480;-71
2023/05/27 14:05:12;;;;;;;1.10;0.73;;;;;;;;;;4954068;28;20445;-73
2023/05/27 14:07:41;;;;;;;0.70;0.20;;;23.70;1.00;;;;;;4953159;29;20473;-72
2023/05/27 14:10:10;;;;;;;0.70;0.10;;;23.80;1.00;;;;;;4956015;28;21017;-72
2023/05/27 14:12:38;;;;;;;0.70;0.20;;;23.90;1.00;;;;;;4974537;28;20951;-71
2023/05/27 14:15:09;;;;;;;0.70;0.10;;;24.10;1.00;;;;;;4973454;28;20449;-71
2023/05/27 14:17:37;;;;;;;0.70;0.10;;;;;;;;;;4954548;28;20550;-72
2023/05/27 14:20:10;;;;;;;0.97;0.77;;;24.30;1.00;;;;;;4954455;28;20458;-72
2023/05/27 14:22:38;;;;;;;1.00;0.63;;;;;;;;;;4953991;28;20492;-72
2023/05/27 14:25:07;;;;;;;0.90;0.30;;;24.20;1.00;;;;;;4953775;29;20504;-73
2023/05/27 14:27:35;;;;;;;4.40;2.00;;;24.20;1.00;;;;;;4954606;29;20470;-72
2023/05/27 14:30:03;;;;;;;0.70;0.10;;;24.30;1.00;;;;;;4954482;28;20966;-72
2023/05/27 14:32:32;;;;;;;0.70;0.40;;;24.40;1.00;;;;;;4954347;28;20536;-72
2023/05/27 14:35:00;;;;;;;1.43;0.40;;;24.60;1.00;;;;;;4954093;29;20546;-72
2023/05/27 14:37:28;;;;;;;0.70;0.10;;;24.60;1.00;;;;;;4954038;28;20465;-72
2023/05/27 14:39:57;;;;;;;0.70;0.20;;;;;;;;;;4954028;28;20457;-73
2023/05/27 14:42:24;;;;;;;0.70;0.20;;;24.90;1.00;;;;;;4952810;28;20488;-71
2023/05/27 14:44:53;;;;;;;0.70;0.20;;;;;;;;;;4953536;28;20451;-73
2023/05/27 14:47:21;;;;;;;0.70;0.20;;;;;;;;;;4953203;28;20474;-73
2023/05/27 14:49:51;;;;;;;0.70;0.20;;;24.80;1.00;;;;;;4953776;28;20822;-72
2023/05/27 14:52:19;;;;;;;0.70;0.20;;;;;;;;;;4948725;28;20498;-72
2023/05/27 14:54:47;;;;;;;0.70;0.10;;;;;;;;;;4954364;28;20469;-72
2023/05/27 14:57:15;;;;;;;0.70;0.10;;;24.90;1.00;;;;;;4957111;28;20740;-72
2023/05/27 14:59:43;;;;;;;0.70;0.20;;;;;;;;;;4963531;28;20477;-73
2023/05/27 15:02:11;;;;;;;0.70;0.10;;;;;;;;;;4960129;29;20482;-73
2023/05/27 15:04:40;;;;;;;0.70;0.10;;;;;;;;;;4970858;29;20500;-73
2023/05/27 15:07:10;;;;;;;0.80;0.20;;;;;;;;;;4967759;28;20521;-74
2023/05/27 15:09:38;;;;;;;0.70;0.20;;;25.10;1.00;;;;;;4969752;28;20458;-71
2023/05/27 15:12:06;;;;;;;0.70;0.20;;;25.10;1.00;;;;;;4972745;28;20448;-71
2023/05/27 15:14:35;;;;;;;0.70;0.30;;;25.00;1.00;;;;;;4964404;28;20442;-71
2023/05/27 15:17:04;;;;;;;0.70;0.10;;;25.10;1.00;;;;;;4961621;28;20473;-71
2023/05/27 15:19:32;;;;;;;0.70;0.10;;;25.30;1.00;;;;;;4981829;28;20457;-71
2023/05/27 15:22:00;;;;;;;0.70;0.20;;;25.40;1.00;;;;;;4961023;28;20520;-71
2023/05/27 15:24:29;;;;;;;0.93;0.40;;;25.40;1.00;;;;;;4973511;28;20469;-72
2023/05/27 15:26:58;;;;;;;1.30;0.20;;;;;;;;;;4954291;28;20458;-71
2023/05/27 15:29:27;;;;;;;0.70;0.20;;;;;;;;;;4957890;28;20473;-70
2023/05/27 15:31:55;;;;;;;1.70;1.60;;;25.70;1.00;;;;;;4939777;28;20622;-71
2023/05/27 15:34:23;;;;;;;0.70;0.10;;;;;;;;;;4938684;29;20439;-72
2023/05/27 15:36:53;;;;;;;1.23;0.20;;;25.80;1.00;;;;;;4939569;29;20460;-72
2023/05/27 15:39:21;;;;;;;0.70;0.10;;;26.00;1.00;;;;;;4944328;29;20443;-72
2023/05/27 15:41:50;;;;;;;0.70;0.10;;;26.10;1.00;;;;;;4936374;29;20565;-72
2023/05/27 15:44:19;;;;;;;0.70;0.20;;;;;;;;;;4936353;29;20475;-72
2023/05/27 15:46:47;;;;;;;0.70;0.20;;;;;;;;;;4937042;29;20550;-72
2023/05/27 15:49:16;;;;;;;0.70;0.20;;;26.40;1.00;;;;;;4931704;29;20459;-72
2023/05/27 15:51:44;;;;;;;0.87;0.63;;;;;;;;;;4937178;29;20475;-73
2023/05/27 15:54:13;;;;;;;1.40;0.93;;;;;;;;;;4937555;29;20828;-72
2023/05/27 15:56:44;;;;;;;0.70;0.10;;;;;;;;;;4937498;29;20451;-72
2023/05/27 15:59:13;;;;;;;1.23;0.97;;;26.00;1.00;;;;;;4938638;29;20868;-72
2023/05/27 16:01:41;;;;;;;0.70;0.20;;;;;;;;;;4939682;29;20551;-72
2023/05/27 16:04:09;;;;;;;0.70;0.10;;;26.00;1.00;;;;;;4941556;29;20451;-72
2023/05/27 16:06:39;;;;;;;0.70;0.20;;;26.00;1.00;;;;;;4940203;29;21018;-72
2023/05/27 16:09:07;;;;;;;0.80;0.20;;;;;;;;;;4939986;29;20486;-71
2023/05/27 16:11:35;;;;;;;0.70;0.20;;;26.00;1.00;;;;;;4938563;29;20504;-73
2023/05/27 16:14:03;;;;;;;0.70;0.20;;;26.10;1.00;;;;;;4936269;29;20458;-73
2023/05/27 16:16:33;;;;;;;0.80;0.70;;;;;;;;;;4936757;29;20574;-73
2023/05/27 16:19:01;;;;;;;1.07;0.47;;;26.10;1.00;;;;;;4935010;29;20497;-71
2023/05/27 16:21:29;;;;;;;3.73;1.90;;;26.20;1.00;;;;;;4938038;29;21016;-73
2023/05/27 16:23:57;;;;;;;1.17;0.67;;;26.40;1.00;;;;;;4943955;28;20566;-71
2023/05/27 16:26:35;;;;;;;0.70;0.20;;;;;;;;;;4943114;29;20490;-71
2023/05/27 16:29:03;;;;;;;0.70;0.20;;;;;;;;;;4937322;29;20992;-71
2023/05/27 16:31:33;;;;;;;0.70;0.13;;;26.80;1.00;;;;;;4938108;29;20503;-71
2023/05/27 16:34:01;;;;;;;0.70;0.10;;;26.80;1.00;;;;;;4934467;29;20483;-72
2023/05/27 16:36:28;;;;;;;0.70;0.10;;;26.80;1.00;;;;;;4940450;29;20550;-72
2023/05/27 16:38:56;;;;;;;1.10;0.87;;;26.80;1.00;;;;;;4931203;29;20464;-72
2023/05/27 16:41:25;;;;;;;0.70;0.20;;;26.80;1.00;;;;;;4938125;29;20554;-70
2023/05/27 16:43:53;;;;;;;0.70;0.10;;;26.80;1.00;;;;;;4936242;29;20510;-72
2023/05/27 16:46:21;;;;;;;0.80;0.20;;;26.90;1.00;;;;;;4936306;29;20456;-71
2023/05/27 16:48:51;;;;;;;1.57;1.47;;;;;;;;;;4935891;29;20479;-72
2023/05/27 16:51:19;;;;;;;0.70;0.30;;;25.20;1.00;;;;;;4935030;29;20517;-72
2023/05/27 16:53:47;;;;;;;0.70;0.20;;;26.80;1.00;;;;;;4934472;29;20880;-72
2023/05/27 16:56:15;;;;;;;0.70;0.10;;;;;;;;;;4935997;29;20538;-72
2023/05/27 16:58:43;;;;;;;0.70;0.20;;;26.80;1.00;;;;;;4935808;29;20483;-72
2023/05/27 17:01:11;;;;;;;0.70;0.10;;;26.80;1.00;;;;;;4937388;29;21005;-73
2023/05/27 17:03:39;;;;;;;0.70;0.20;;;26.80;1.00;;;;;;4941359;29;20537;-72
2023/05/27 17:06:10;;;;;;;0.90;0.40;;;27.00;1.00;;;;;;4935846;29;20459;-72
2023/05/27 17:08:38;;;;;;;0.70;0.20;;;27.00;1.00;;;;;;4937486;29;20463;-74
2023/05/27 17:11:06;;;;;;;0.70;0.10;;;27.00;1.00;;;;;;4946392;28;20502;-75
2023/05/27 17:13:33;;;;;;;0.70;0.20;;;27.20;1.00;;;;;;4945966;29;20479;-74
2023/05/27 17:16:01;;;;;;;0.70;0.10;;;27.30;1.00;;;;;;4950533;29;20533;-73
2023/05/27 17:18:29;;;;;;;0.70;0.10;;;27.50;1.00;;;;;;4944546;28;20483;-73
2023/05/27 17:20:57;;;;;;;0.70;0.30;;;;;;;;;;4945631;29;20470;-73